Time;durP1;ratioP1;P1;durP2;ratioP2;P2;SDS_P1;SDS_P2;PMS_P1;PMS_P2;Temp;Humidity;BMP_temperature;BMP_pressure;BME280_temperature;BME280_humidity;BME280_pressure;Samples;Min_cycle;Max_cycle;Signal;HPM_P1;HPM_P2
2021/01/10 00:00:59;;;;;;;5.07;3.30;;;15.70;63.10;;;;;;10496613;28;20115;-58
2021/01/10 00:05:59;;;;;;;4.65;2.95;;;15.70;63.10;;;;;;10496391;28;20119;-58
2021/01/10 00:11:00;;;;;;;4.65;3.28;;;15.70;63.10;;;;;;10496728;28;20104;-58
2021/01/10 00:16:01;;;;;;;4.53;3.33;;;15.60;63.10;;;;;;10496597;28;20398;-58
2021/01/10 00:21:02;;;;;;;4.90;2.90;;;15.60;63.00;;;;;;10496601;28;20028;-58
2021/01/10 00:26:03;;;;;;;4.90;2.95;;;15.60;63.10;;;;;;10511733;28;20069;-58
2021/01/10 00:31:03;;;;;;;3.67;2.83;;;15.60;63.10;;;;;;10510403;28;20530;-58
2021/01/10 00:36:04;;;;;;;4.40;3.15;;;15.50;63.00;;;;;;10504441;28;20040;-58
2021/01/10 00:41:05;;;;;;;4.07;2.67;;;15.50;63.00;;;;;;10504135;28;20059;-58
2021/01/10 00:46:06;;;;;;;3.88;2.95;;;15.50;63.00;;;;;;10502542;28;20059;-59
2021/01/10 00:51:15;;;;;;;4.38;2.78;;;15.50;62.90;;;;;;10502164;28;20052;-58
2021/01/10 00:56:16;;;;;;;;;;;15.50;62.90;;;;;;10503863;28;20504;-59
2021/01/10 01:01:17;;;;;;;5.28;3.08;;;15.40;62.70;;;;;;10502998;28;19912;-59
2021/01/10 01:06:17;;;;;;;4.63;3.47;;;15.40;62.80;;;;;;10502840;28;20053;-59
2021/01/10 01:11:30;;;;;;;4.82;3.28;;;15.40;62.70;;;;;;10502657;28;20095;-58
2021/01/10 01:16:31;;;;;;;4.70;3.47;;;15.40;62.70;;;;;;10502736;28;20473;-58
2021/01/10 01:21:32;;;;;;;4.38;3.20;;;15.30;62.60;;;;;;10502488;28;20541;-58
2021/01/10 01:26:33;;;;;;;5.55;3.22;;;15.30;62.60;;;;;;10493934;28;20029;-58
2021/01/10 01:31:34;;;;;;;4.18;2.90;;;15.30;62.60;;;;;;10503206;28;20635;-58
2021/01/10 01:36:35;;;;;;;3.33;2.88;;;15.30;62.60;;;;;;10501845;28;20016;-58
2021/01/10 01:41:37;;;;;;;3.78;2.63;;;15.30;62.60;;;;;;10501206;28;20034;-58
2021/01/10 01:46:38;;;;;;;5.65;3.28;;;15.30;62.60;;;;;;10501212;28;20017;-58
2021/01/10 01:51:41;;;;;;;5.13;3.33;;;15.30;62.60;;;;;;10492835;28;20017;-58
2021/01/10 01:56:41;;;;;;;5.10;3.13;;;15.20;62.50;;;;;;10501363;28;20028;-58
2021/01/10 02:01:42;;;;;;;4.45;3.30;;;15.20;62.50;;;;;;10500925;28;20865;-58
2021/01/10 02:07:10;;;;;;;4.18;2.67;;;15.20;62.50;;;;;;10500479;28;20052;-58
2021/01/10 02:12:13;;;;;;;3.75;2.72;;;15.20;62.50;;;;;;10500729;28;20028;-58
2021/01/10 02:17:16;;;;;;;4.00;2.90;;;15.20;62.60;;;;;;10500378;28;20024;-58
2021/01/10 02:22:20;;;;;;;4.75;3.13;;;15.10;62.50;;;;;;10498212;28;20108;-58
2021/01/10 02:27:21;;;;;;;4.53;3.03;;;15.10;62.50;;;;;;10499193;28;20057;-58
2021/01/10 02:32:23;;;;;;;5.07;3.03;;;15.10;62.50;;;;;;10505105;28;20024;-58
2021/01/10 02:37:56;;;;;;;4.55;3.15;;;15.10;62.50;;;;;;10498332;28;20032;-58
2021/01/10 02:43:20;;;;;;;4.32;3.22;;;15.00;62.40;;;;;;10496905;28;20032;-58
2021/01/10 02:48:21;;;;;;;3.60;2.92;;;15.10;62.50;;;;;;10497704;28;20036;-58
2021/01/10 02:53:22;;;;;;;4.28;2.70;;;15.00;62.40;;;;;;10497762;28;20024;-58
2021/01/10 02:58:27;;;;;;;5.00;3.42;;;15.00;62.50;;;;;;10498701;28;20046;-58
2021/01/10 03:03:29;;;;;;;3.28;2.53;;;15.00;62.40;;;;;;10513758;28;20025;-58
2021/01/10 03:08:30;;;;;;;7.15;3.75;;;15.00;62.40;;;;;;10496620;28;20032;-58
2021/01/10 03:13:32;;;;;;;4.40;3.10;;;14.90;62.30;;;;;;10498208;28;20082;-58
2021/01/10 03:18:33;;;;;;;4.90;3.40;;;14.90;62.30;;;;;;10498085;28;20442;-58
2021/01/10 03:23:34;;;;;;;6.43;3.88;;;14.90;62.30;;;;;;10497630;28;20032;-58
2021/01/10 03:28:35;;;;;;;5.00;3.55;;;14.90;62.40;;;;;;10497445;28;20124;-58
2021/01/10 03:33:35;;;;;;;4.72;3.00;;;14.90;62.30;;;;;;10501048;28;20096;-58
2021/01/10 03:38:36;;;;;;;5.82;3.13;;;14.80;62.30;;;;;;10497552;28;20054;-58
2021/01/10 03:43:38;;;;;;;4.68;3.40;;;14.90;62.30;;;;;;10487486;28;20064;-57
2021/01/10 03:48:38;;;;;;;5.18;3.83;;;14.80;62.30;;;;;;10497137;28;20358;-58
2021/01/10 03:53:39;;;;;;;4.05;2.80;;;14.80;62.30;;;;;;10496983;28;20021;-58
2021/01/10 03:58:40;;;;;;;4.50;3.10;;;14.80;62.30;;;;;;10496815;28;20103;-58
2021/01/10 04:03:40;;;;;;;4.35;3.08;;;14.80;62.30;;;;;;10496310;28;20115;-58
2021/01/10 04:08:41;;;;;;;5.30;3.22;;;14.80;62.30;;;;;;10493014;28;20123;-58
2021/01/10 04:13:42;;;;;;;4.45;3.50;;;14.70;62.30;;;;;;10496448;28;20031;-58
2021/01/10 04:18:43;;;;;;;5.55;3.72;;;14.70;62.30;;;;;;10496609;28;20036;-58
2021/01/10 04:23:44;;;;;;;5.68;3.30;;;14.80;62.30;;;;;;10495118;28;20024;-59
2021/01/10 04:28:44;;;;;;;4.57;3.50;;;14.70;62.30;;;;;;10496104;28;20048;-58
2021/01/10 04:33:45;;;;;;;4.72;3.40;;;14.70;62.20;;;;;;10499808;28;20056;-58
2021/01/10 04:38:46;;;;;;;5.35;3.35;;;14.70;62.90;;;;;;10495725;28;20090;-58
2021/01/10 04:43:46;;;;;;;4.82;3.45;;;14.60;62.20;;;;;;10495917;28;20047;-58
2021/01/10 04:48:49;;;;;;;5.32;3.40;;;14.60;62.20;;;;;;10495953;28;20037;-58
2021/01/10 04:53:50;;;;;;;3.60;3.25;;;14.60;62.20;;;;;;10503335;28;20025;-58
2021/01/10 04:58:52;;;;;;;4.78;3.40;;;14.60;62.10;;;;;;10495709;28;20102;-58
2021/01/10 05:03:55;;;;;;;4.63;3.45;;;14.60;62.20;;;;;;10511103;28;20081;-58
2021/01/10 05:08:56;;;;;;;4.10;3.42;;;14.60;62.20;;;;;;10494953;28;20064;-58
2021/01/10 05:13:57;;;;;;;4.43;3.30;;;14.60;62.20;;;;;;10496494;28;20050;-58
2021/01/10 05:18:59;;;;;;;6.28;4.10;;;14.50;62.10;;;;;;10502687;28;20422;-58
2021/01/10 05:24:00;;;;;;;5.07;3.45;;;14.50;62.10;;;;;;10502593;28;20386;-58
2021/01/10 05:29:09;;;;;;;4.97;3.67;;;14.50;62.10;;;;;;10502453;28;20042;-58
2021/01/10 05:34:16;;;;;;;4.30;3.23;;;14.50;62.10;;;;;;10505882;28;20036;-59
2021/01/10 05:39:25;;;;;;;5.20;3.33;;;14.50;62.00;;;;;;10501946;28;20032;-58
2021/01/10 05:44:28;;;;;;;4.38;3.25;;;14.50;62.10;;;;;;10501895;28;20145;-58
2021/01/10 05:49:29;;;;;;;4.78;3.53;;;14.50;62.00;;;;;;10492757;28;20514;-58
2021/01/10 05:54:44;;;;;;;5.82;3.47;;;14.60;62.40;;;;;;10501263;28;20495;-58
2021/01/10 05:59:44;;;;;;;4.15;2.90;;;14.70;62.10;;;;;;10493381;28;20551;-58
2021/01/10 06:04:45;;;;;;;5.18;3.08;;;14.90;61.70;;;;;;10499359;28;20107;-58
2021/01/10 06:09:47;;;;;;;4.40;3.35;;;15.20;61.00;;;;;;10497095;28;20460;-58
2021/01/10 06:14:48;;;;;;;3.63;2.42;;;15.40;60.60;;;;;;10497160;28;20055;-58
2021/01/10 06:19:50;;;;;;;4.15;3.15;;;15.50;60.30;;;;;;10485853;28;20496;-58
2021/01/10 06:24:53;;;;;;;3.38;2.70;;;15.60;59.90;;;;;;10497219;28;20523;-58
2021/01/10 06:29:56;;;;;;;4.80;2.67;;;15.70;59.70;;;;;;10495932;28;20111;-59
2021/01/10 06:35:00;;;;;;;4.40;3.03;;;15.80;59.50;;;;;;10503211;28;20032;-58
2021/01/10 06:40:03;;;;;;;5.50;3.20;;;15.90;59.40;;;;;;10461184;28;20497;-58
2021/01/10 06:45:06;;;;;;;7.18;3.15;;;16.00;59.20;;;;;;10471353;28;20045;-58
2021/01/10 06:50:07;;;;;;;7.38;3.38;;;16.10;59.40;;;;;;10481419;28;20025;-58
2021/01/10 06:55:09;;;;;;;13.20;3.80;;;16.20;60.20;;;;;;10490338;28;20388;-58
2021/01/10 07:00:11;;;;;;;10.52;3.97;;;16.40;59.40;;;;;;10505363;28;20025;-58
2021/01/10 07:05:11;;;;;;;12.30;3.67;;;16.50;60.30;;;;;;10498184;28;20072;-59
2021/01/10 07:10:24;;;;;;;10.38;3.83;;;16.70;60.20;;;;;;10484292;28;20445;-59
2021/01/10 07:15:25;;;;;;;6.05;3.45;;;16.80;60.50;;;;;;10488229;28;20024;-59
2021/01/10 07:20:40;;;;;;;7.38;3.72;;;16.90;59.90;;;;;;10489212;28;20043;-58
2021/01/10 07:25:41;;;;;;;8.45;2.97;;;17.00;59.70;;;;;;10481096;28;20036;-58
2021/01/10 07:30:42;;;;;;;9.70;3.28;;;17.10;59.50;;;;;;10497022;28;20032;-61
2021/01/10 07:35:58;;;;;;;13.50;3.63;;;17.20;59.00;;;;;;10489978;28;20082;-59
2021/01/10 07:41:27;;;;;;;8.13;3.20;;;17.30;59.10;;;;;;10480575;28;20029;-58
2021/01/10 07:46:53;;;;;;;7.85;3.63;;;17.30;58.70;;;;;;10466980;28;20513;-58
2021/01/10 07:51:55;;;;;;;7.80;3.20;;;17.20;59.00;;;;;;10490089;28;20524;-59
2021/01/10 07:57:33;;;;;;;7.07;3.55;;;17.30;59.10;;;;;;10483115;28;20421;-59
2021/01/10 08:03:02;;;;;;;17.70;3.08;;;17.30;58.90;;;;;;10491318;28;20105;-60
2021/01/10 08:08:05;;;;;;;15.20;3.78;;;17.20;59.10;;;;;;10484536;28;20052;-60
2021/01/10 08:13:25;;;;;;;16.73;4.25;;;17.20;59.20;;;;;;10495407;28;20020;-60
2021/01/10 08:18:33;;;;;;;11.82;3.92;;;17.30;59.30;;;;;;10489687;28;20044;-62
2021/01/10 08:23:35;;;;;;;11.07;3.42;;;17.30;58.80;;;;;;10490388;28;20032;-59
2021/01/10 08:28:51;;;;;;;14.52;3.60;;;17.30;58.70;;;;;;10481971;28;20025;-59
2021/01/10 08:34:06;;;;;;;9.43;3.40;;;17.30;58.60;;;;;;10489775;28;20025;-60
2021/01/10 08:39:09;;;;;;;8.23;2.97;;;17.30;58.60;;;;;;10484437;28;20077;-58
2021/01/10 08:44:14;;;;;;;6.85;3.28;;;17.30;58.50;;;;;;10488898;28;20107;-59
2021/01/10 08:49:25;;;;;;;8.57;3.83;;;17.20;58.80;;;;;;10487405;28;20111;-59
2021/01/10 08:54:27;;;;;;;8.77;3.45;;;17.20;58.80;;;;;;10499984;28;20497;-59
2021/01/10 08:59:38;;;;;;;7.55;3.42;;;17.10;59.10;;;;;;10492329;28;20031;-59
2021/01/10 09:04:41;;;;;;;9.43;3.05;;;17.00;59.10;;;;;;10491627;28;20067;-60
2021/01/10 09:10:00;;;;;;;10.63;2.97;;;17.00;59.20;;;;;;10500211;28;20480;-63
2021/01/10 09:15:18;;;;;;;7.03;3.97;;;17.00;59.20;;;;;;10507907;28;20369;-61
2021/01/10 09:20:33;;;;;;;8.60;3.88;;;17.00;58.50;;;;;;10483364;28;20074;-62
2021/01/10 09:25:34;;;;;;;12.23;4.00;;;16.90;58.60;;;;;;10474986;28;20468;-61
2021/01/10 09:30:41;;;;;;;8.30;3.63;;;16.90;58.30;;;;;;10476749;28;20028;-61
2021/01/10 09:35:47;;;;;;;8.02;3.97;;;16.90;58.50;;;;;;10469218;28;20029;-61
2021/01/10 09:41:07;;;;;;;6.85;3.30;;;16.90;58.60;;;;;;10474609;28;20099;-61
2021/01/10 09:46:31;;;;;;;6.63;3.47;;;16.90;58.50;;;;;;10480948;28;20021;-61
2021/01/10 09:51:40;;;;;;;8.55;3.30;;;16.90;58.70;;;;;;10483353;28;20416;-59
2021/01/10 09:56:41;;;;;;;8.38;3.72;;;16.90;58.70;;;;;;10492158;28;20035;-61
2021/01/10 10:01:41;;;;;;;5.25;3.63;;;16.90;58.80;;;;;;10497067;28;20483;-61
2021/01/10 10:06:52;;;;;;;9.07;3.78;;;16.80;58.80;;;;;;10497094;28;20524;-61
2021/01/10 10:12:06;;;;;;;8.35;3.58;;;16.80;58.90;;;;;;10499462;28;20366;-61
2021/01/10 10:17:12;;;;;;;7.22;3.17;;;16.80;58.80;;;;;;10495319;28;20020;-58
2021/01/10 10:22:40;;;;;;;11.25;4.07;;;16.80;58.70;;;;;;10469055;28;20028;-61
2021/01/10 10:27:58;;;;;;;14.48;3.50;;;16.90;58.70;;;;;;10466164;28;20045;-65
2021/01/10 10:33:00;;;;;;;11.73;3.90;;;16.90;59.30;;;;;;10488398;28;20020;-61
2021/01/10 10:38:02;;;;;;;12.20;3.40;;;16.90;59.80;;;;;;10492964;28;20091;-60
2021/01/10 10:43:03;;;;;;;11.00;3.67;;;16.80;60.30;;;;;;10486015;28;20024;-62
2021/01/10 10:48:04;;;;;;;8.65;3.67;;;16.80;60.40;;;;;;10492752;28;20534;-62
2021/01/10 10:53:05;;;;;;;12.57;4.18;;;16.90;60.70;;;;;;10477567;28;20055;-60
2021/01/10 10:58:07;;;;;;;12.40;3.78;;;16.80;60.50;;;;;;10508447;28;20079;-59
2021/01/10 11:03:08;;;;;;;8.10;3.47;;;16.90;60.80;;;;;;10497635;28;20048;-60
2021/01/10 11:08:08;;;;;;;16.83;4.25;;;16.90;61.40;;;;;;10497193;28;20123;-60
2021/01/10 11:13:09;;;;;;;12.52;4.20;;;16.90;60.90;;;;;;10492747;28;20103;-61
2021/01/10 11:18:10;;;;;;;11.50;4.22;;;16.90;61.70;;;;;;10497323;28;20036;-61
2021/01/10 11:23:10;;;;;;;16.05;4.75;;;16.90;64.50;;;;;;10487916;28;20474;-60
2021/01/10 11:28:11;;;;;;;15.90;4.78;;;16.90;67.30;;;;;;10493088;28;20179;-61
2021/01/10 11:33:12;;;;;;;12.57;5.88;;;16.90;70.40;;;;;;10487183;28;20360;-61
2021/01/10 11:38:12;;;;;;;14.82;5.75;;;17.00;70.10;;;;;;10491677;28;20117;-61
2021/01/10 11:43:13;;;;;;;14.63;4.90;;;17.00;69.40;;;;;;10489865;28;20154;-61
2021/01/10 11:48:14;;;;;;;16.40;5.13;;;16.90;68.30;;;;;;10477384;28;20037;-61
2021/01/10 11:53:15;;;;;;;22.35;5.60;;;16.90;68.00;;;;;;10472586;28;20071;-62
2021/01/10 11:58:16;;;;;;;23.52;6.07;;;16.90;68.00;;;;;;10478305;28;20066;-62
2021/01/10 12:03:18;;;;;;;21.15;5.60;;;16.90;67.90;;;;;;10493679;28;20029;-58
2021/01/10 12:08:21;;;;;;;14.27;4.32;;;16.90;68.10;;;;;;10512031;28;20393;-64
2021/01/10 12:13:22;;;;;;;15.20;5.40;;;16.80;67.70;;;;;;10492623;28;20473;-62
2021/01/10 12:18:23;;;;;;;17.15;5.15;;;16.70;67.90;;;;;;10486082;28;20017;-61
2021/01/10 12:23:25;;;;;;;18.65;4.85;;;16.70;67.50;;;;;;10494858;28;20028;-60
2021/01/10 12:28:26;;;;;;;18.58;4.60;;;16.60;67.10;;;;;;10496408;28;20350;-63
2021/01/10 12:33:26;;;;;;;15.63;3.72;;;16.60;67.60;;;;;;10483686;28;20066;-60
2021/01/10 12:38:27;;;;;;;17.85;4.10;;;16.60;66.90;;;;;;10485225;28;20112;-59
2021/01/10 12:43:28;;;;;;;23.65;5.22;;;16.50;66.90;;;;;;10486086;28;20111;-60
2021/01/10 12:48:28;;;;;;;15.95;4.40;;;16.40;66.80;;;;;;10499729;28;20346;-60
2021/01/10 12:53:29;;;;;;;15.40;4.47;;;16.30;66.60;;;;;;10467089;28;20052;-60
2021/01/10 12:58:30;;;;;;;14.07;4.63;;;16.20;66.30;;;;;;10469217;28;20060;-60
2021/01/10 13:03:30;;;;;;;13.00;3.90;;;16.20;66.40;;;;;;10497530;28;20062;-60
2021/01/10 13:08:31;;;;;;;12.25;3.50;;;16.10;66.40;;;;;;10500094;28;20519;-60
2021/01/10 13:13:32;;;;;;;11.55;3.80;;;16.10;66.30;;;;;;10499832;28;20037;-59
2021/01/10 13:18:34;;;;;;;8.23;3.53;;;16.10;66.40;;;;;;10515887;28;20036;-60
2021/01/10 13:23:35;;;;;;;7.78;3.70;;;16.10;66.20;;;;;;10501726;28;20032;-60
2021/01/10 13:28:36;;;;;;;16.42;3.88;;;16.20;65.90;;;;;;10501896;28;20033;-60
2021/01/10 13:33:37;;;;;;;10.10;3.53;;;16.30;65.60;;;;;;10499709;28;20032;-60
2021/01/10 13:38:38;;;;;;;7.38;2.95;;;16.30;65.40;;;;;;10492955;28;20013;-59
2021/01/10 13:43:38;;;;;;;13.45;3.92;;;16.40;65.00;;;;;;10493922;28;20029;-66
2021/01/10 13:48:40;;;;;;;16.55;3.42;;;16.40;65.10;;;;;;10500352;28;20449;-61
2021/01/10 13:53:41;;;;;;;11.73;3.53;;;16.40;64.70;;;;;;10500334;28;20078;-63
2021/01/10 13:58:42;;;;;;;8.63;3.58;;;16.40;64.70;;;;;;10496682;28;20025;-63
2021/01/10 14:03:44;;;;;;;10.80;3.50;;;16.50;64.50;;;;;;10496933;28;20112;-63
2021/01/10 14:08:46;;;;;;;14.90;3.40;;;16.50;64.50;;;;;;10498057;28;20107;-64
2021/01/10 14:13:49;;;;;;;13.80;3.78;;;16.60;64.40;;;;;;10498580;28;20551;-63
2021/01/10 14:18:52;;;;;;;15.98;3.33;;;16.90;64.10;;;;;;10513087;28;20055;-66
2021/01/10 14:24:04;;;;;;;14.57;2.80;;;17.10;63.60;;;;;;10498013;28;20103;-62
2021/01/10 14:29:12;;;;;;;12.13;3.33;;;17.30;63.70;;;;;;10513350;28;20050;-65
2021/01/10 14:34:15;;;;;;;11.85;3.70;;;17.40;64.60;;;;;;10498400;28;20035;-65
2021/01/10 14:39:17;;;;;;;10.38;3.63;;;17.50;64.90;;;;;;10496961;28;20385;-66
2021/01/10 14:44:18;;;;;;;12.50;3.80;;;17.70;65.20;;;;;;10496146;28;20063;-65
2021/01/10 14:49:18;;;;;;;13.85;4.40;;;17.80;65.60;;;;;;10496251;28;20132;-67
2021/01/10 14:54:19;;;;;;;13.30;3.92;;;17.90;65.60;;;;;;10495493;28;20517;-71
2021/01/10 14:59:20;;;;;;;11.20;4.10;;;17.90;65.30;;;;;;10488525;28;20116;-63
2021/01/10 15:04:21;;;;;;;9.30;2.58;;;18.10;65.10;;;;;;10498563;28;20111;-61
2021/01/10 15:09:21;;;;;;;10.88;3.60;;;18.20;64.80;;;;;;10481295;28;20072;-63
2021/01/10 15:14:22;;;;;;;13.90;3.17;;;18.20;65.00;;;;;;10484555;28;20115;-66
2021/01/10 15:19:23;;;;;;;15.43;4.15;;;18.20;65.20;;;;;;10474650;28;20060;-64
2021/01/10 15:24:23;;;;;;;13.02;2.95;;;18.20;64.60;;;;;;10505271;28;20028;-64
2021/01/10 15:29:24;;;;;;;12.98;2.88;;;18.20;64.50;;;;;;10492720;28;20131;-63
2021/01/10 15:34:25;;;;;;;11.45;2.83;;;18.20;64.80;;;;;;10494331;28;20009;-62
2021/01/10 15:39:26;;;;;;;12.45;3.42;;;18.20;64.70;;;;;;10489324;28;20035;-62
2021/01/10 15:44:27;;;;;;;17.13;3.47;;;18.20;64.40;;;;;;10475473;28;20123;-62
2021/01/10 15:49:28;;;;;;;7.68;2.80;;;18.30;64.50;;;;;;10490706;28;20074;-63
2021/01/10 15:54:28;;;;;;;12.23;2.72;;;18.40;64.20;;;;;;10491005;28;20495;-62
2021/01/10 15:59:29;;;;;;;13.02;3.47;;;18.50;64.00;;;;;;10474199;28;20099;-64
2021/01/10 16:04:30;;;;;;;12.40;3.63;;;18.70;61.50;;;;;;10501085;28;20087;-62
2021/01/10 16:09:31;;;;;;;17.05;4.18;;;18.70;61.20;;;;;;10490248;28;20060;-63
2021/01/10 16:14:32;;;;;;;14.27;3.88;;;18.80;60.30;;;;;;10468667;28;20032;-59
2021/01/10 16:19:32;;;;;;;17.88;3.95;;;18.90;59.30;;;;;;10464185;28;20082;-65
2021/01/10 16:24:33;;;;;;;12.65;3.70;;;19.00;58.70;;;;;;10480771;28;20116;-60
2021/01/10 16:29:34;;;;;;;9.80;3.70;;;19.00;57.60;;;;;;10486848;28;20031;-59
2021/01/10 16:34:35;;;;;;;9.75;3.25;;;19.10;56.50;;;;;;10464258;28;20367;-58
2021/01/10 16:39:35;;;;;;;13.68;3.67;;;19.20;55.80;;;;;;10458373;28;20029;-60
2021/01/10 16:44:36;;;;;;;10.82;3.50;;;19.30;56.00;;;;;;10494738;28;20541;-60
2021/01/10 16:49:37;;;;;;;10.95;4.35;;;19.40;55.90;;;;;;10487219;28;20128;-63
2021/01/10 16:54:39;;;;;;;11.95;4.05;;;19.30;55.40;;;;;;10499570;28;20107;-64
2021/01/10 16:59:40;;;;;;;13.68;3.35;;;19.40;55.20;;;;;;10486697;28;20551;-60
2021/01/10 17:04:40;;;;;;;9.20;4.18;;;19.40;56.10;;;;;;10477715;28;20116;-64
2021/01/10 17:09:41;;;;;;;8.45;3.70;;;19.60;55.90;;;;;;10482693;28;20050;-60
2021/01/10 17:14:42;;;;;;;10.98;4.43;;;19.50;55.70;;;;;;10491878;28;20024;-62
2021/01/10 17:19:42;;;;;;;6.70;3.55;;;19.40;58.10;;;;;;10492604;28;20024;-62
2021/01/10 17:24:43;;;;;;;6.53;3.25;;;19.30;58.30;;;;;;10498459;28;20067;-60
2021/01/10 17:29:44;;;;;;;6.55;3.20;;;19.30;58.20;;;;;;10481542;28;20159;-60
2021/01/10 17:34:45;;;;;;;4.75;2.35;;;19.30;60.00;;;;;;10468988;28;20103;-59
2021/01/10 17:39:46;;;;;;;11.60;3.03;;;19.30;60.40;;;;;;10481936;28;20481;-65
2021/01/10 17:44:46;;;;;;;7.53;2.92;;;19.30;60.50;;;;;;10480712;28;20060;-61
2021/01/10 17:49:47;;;;;;;5.53;2.40;;;19.30;61.00;;;;;;10481829;28;20115;-62
2021/01/10 17:54:48;;;;;;;11.00;2.83;;;19.40;60.60;;;;;;10486570;28;20108;-58
2021/01/10 17:59:49;;;;;;;7.82;2.97;;;19.40;61.30;;;;;;10496853;28;20078;-60
2021/01/10 18:04:50;;;;;;;6.18;3.08;;;19.20;60.90;;;;;;10486130;28;20032;-61
2021/01/10 18:09:51;;;;;;;11.68;2.95;;;19.30;61.50;;;;;;10481835;28;20120;-61
2021/01/10 18:14:54;;;;;;;14.95;3.08;;;19.30;61.70;;;;;;10497912;28;20021;-59
2021/01/10 18:19:55;;;;;;;10.05;2.92;;;19.30;61.50;;;;;;10496447;28;20032;-64
2021/01/10 18:24:55;;;;;;;8.13;2.50;;;19.30;60.50;;;;;;10494010;28;20047;-63
2021/01/10 18:29:56;;;;;;;8.25;2.78;;;19.20;60.70;;;;;;10497380;28;20039;-63
2021/01/10 18:34:57;;;;;;;4.78;2.20;;;19.10;60.80;;;;;;10497403;28;20453;-64
2021/01/10 18:39:58;;;;;;;8.02;2.30;;;19.10;60.90;;;;;;10488509;28;20037;-64
2021/01/10 18:45:00;;;;;;;5.85;2.88;;;19.10;61.10;;;;;;10468237;28;20040;-63
2021/01/10 18:50:01;;;;;;;7.60;2.50;;;19.10;61.10;;;;;;10498447;28;20020;-65
2021/01/10 18:55:03;;;;;;;7.35;2.22;;;19.10;61.50;;;;;;10489381;28;20519;-72
2021/01/10 19:00:05;;;;;;;5.03;2.25;;;19.10;60.90;;;;;;10495821;28;20059;-72
2021/01/10 19:05:07;;;;;;;18.20;2.83;;;19.20;60.70;;;;;;10493317;28;20089;-72
2021/01/10 19:10:09;;;;;;;3.78;1.60;;;19.20;61.30;;;;;;10483265;28;20028;-72
2021/01/10 19:15:10;;;;;;;6.10;2.03;;;19.20;60.70;;;;;;10483000;28;20115;-72
2021/01/10 19:20:12;;;;;;;5.57;1.90;;;19.20;60.70;;;;;;10482529;28;20032;-67
2021/01/10 19:25:17;;;;;;;6.40;2.40;;;19.20;60.70;;;;;;10494527;28;20083;-70
2021/01/10 19:30:18;;;;;;;5.15;1.70;;;19.20;60.60;;;;;;10461760;28;20099;-71
2021/01/10 19:35:20;;;;;;;5.82;2.10;;;19.30;60.50;;;;;;10490175;28;20501;-71
2021/01/10 19:40:21;;;;;;;5.82;1.75;;;19.30;60.40;;;;;;10487220;28;20078;-71
2021/01/10 19:45:22;;;;;;;2.45;1.70;;;19.30;60.40;;;;;;10493752;28;20048;-71
2021/01/10 19:50:23;;;;;;;3.83;1.92;;;19.40;60.40;;;;;;10485926;28;20477;-72
2021/01/10 19:55:24;;;;;;;2.80;1.40;;;19.40;60.40;;;;;;10479518;28;20025;-71
2021/01/10 20:00:24;;;;;;;4.15;1.58;;;19.40;60.30;;;;;;10482764;28;20055;-74
2021/01/10 20:05:25;;;;;;;4.53;1.75;;;19.40;60.30;;;;;;10495370;28;20608;-73
2021/01/10 20:10:26;;;;;;;5.32;1.52;;;19.40;60.30;;;;;;10496845;28;20025;-73
2021/01/10 20:15:26;;;;;;;2.92;1.05;;;19.40;60.40;;;;;;10496810;28;20161;-71
2021/01/10 20:20:27;;;;;;;2.35;1.40;;;19.30;60.40;;;;;;10482113;28;20028;-71
2021/01/10 20:25:28;;;;;;;4.85;1.38;;;19.20;60.80;;;;;;10482992;28;20024;-71
2021/01/10 20:30:29;;;;;;;9.70;2.33;;;19.10;60.90;;;;;;10500624;28;20032;-70
2021/01/10 20:35:30;;;;;;;5.45;1.65;;;18.90;61.10;;;;;;10491224;28;20021;-71
2021/01/10 20:40:31;;;;;;;1.90;1.08;;;18.70;61.40;;;;;;10490881;28;20089;-70
2021/01/10 20:45:32;;;;;;;2.72;1.30;;;18.50;61.90;;;;;;10485532;28;20157;-70
2021/01/10 20:50:32;;;;;;;3.63;1.48;;;18.30;62.20;;;;;;10487141;28;20045;-71
2021/01/10 20:55:33;;;;;;;3.63;1.40;;;18.20;62.60;;;;;;10492078;28;20241;-70
2021/01/10 21:00:34;;;;;;;2.70;1.40;;;18.00;62.70;;;;;;10496173;28;20040;-70
2021/01/10 21:05:34;;;;;;;2.35;1.40;;;17.90;63.00;;;;;;10499421;28;20124;-72
2021/01/10 21:10:35;;;;;;;2.03;1.30;;;17.80;63.20;;;;;;10495143;28;20028;-70
2021/01/10 21:15:36;;;;;;;2.30;1.30;;;17.70;63.40;;;;;;10501665;28;20081;-70
2021/01/10 21:20:36;;;;;;;3.40;1.60;;;17.60;63.60;;;;;;10502044;28;20103;-71
2021/01/10 21:25:37;;;;;;;3.15;1.40;;;17.50;63.80;;;;;;10501682;28;20059;-70
2021/01/10 21:30:38;;;;;;;3.90;1.73;;;17.40;64.00;;;;;;10517335;28;20070;-71
2021/01/10 21:35:38;;;;;;;2.13;1.10;;;17.30;64.00;;;;;;10494027;28;20154;-71
2021/01/10 21:40:39;;;;;;;4.28;1.33;;;17.20;64.10;;;;;;10501209;28;20032;-71
2021/01/10 21:45:40;;;;;;;2.25;1.40;;;17.20;64.20;;;;;;10500270;28;20024;-72
2021/01/10 21:50:41;;;;;;;2.00;1.48;;;17.10;64.30;;;;;;10493679;28;20120;-70
2021/01/10 21:55:41;;;;;;;3.13;1.80;;;17.10;64.40;;;;;;10499268;28;20052;-70
2021/01/10 22:00:42;;;;;;;2.63;1.38;;;17.00;64.40;;;;;;10500538;28;20023;-70
2021/01/10 22:05:43;;;;;;;2.78;1.40;;;16.90;64.50;;;;;;10499019;28;20058;-70
2021/01/10 22:10:44;;;;;;;3.05;1.58;;;16.90;64.60;;;;;;10500052;28;20099;-70
2021/01/10 22:15:48;;;;;;;2.55;1.63;;;16.80;64.50;;;;;;10499878;28;20111;-69
2021/01/10 22:20:48;;;;;;;1.98;1.30;;;16.80;64.60;;;;;;10500135;28;20354;-69
2021/01/10 22:25:49;;;;;;;2.20;1.20;;;16.70;64.50;;;;;;10499509;28;20058;-70
2021/01/10 22:30:50;;;;;;;2.72;1.42;;;16.70;64.60;;;;;;10514845;28;20066;-70
2021/01/10 22:35:51;;;;;;;2.05;1.23;;;16.70;64.60;;;;;;10515105;28;20067;-71
2021/01/10 22:40:51;;;;;;;2.45;1.30;;;16.60;64.70;;;;;;10498643;28;20013;-71
2021/01/10 22:45:52;;;;;;;2.40;1.42;;;16.60;64.60;;;;;;10497616;28;20473;-70
2021/01/10 22:50:53;;;;;;;3.28;2.00;;;16.60;64.70;;;;;;10498458;28;20039;-69
2021/01/10 22:55:54;;;;;;;2.78;1.60;;;16.60;64.70;;;;;;10497098;28;20493;-70
2021/01/10 23:00:54;;;;;;;3.65;1.70;;;16.50;64.60;;;;;;10496939;28;20126;-70
2021/01/10 23:07:02;;;;;;;2.28;1.45;;;16.40;64.60;;;;;;10486021;28;20060;-70
2021/01/10 23:12:04;;;;;;;2.08;1.33;;;16.40;64.70;;;;;;10493752;28;20060;-69
2021/01/10 23:17:05;;;;;;;2.95;1.60;;;16.40;64.80;;;;;;10489984;28;20107;-70
2021/01/10 23:22:10;;;;;;;2.22;1.40;;;16.40;64.70;;;;;;10497231;28;20128;-70
2021/01/10 23:27:11;;;;;;;2.55;1.85;;;16.30;64.50;;;;;;10505266;28;20446;-70
2021/01/10 23:32:12;;;;;;;4.13;1.80;;;16.30;64.60;;;;;;10512948;28;20044;-69
2021/01/10 23:37:13;;;;;;;2.67;2.13;;;16.30;64.70;;;;;;10496482;28;20443;-70
2021/01/10 23:42:13;;;;;;;2.40;1.70;;;16.30;64.70;;;;;;10497560;28;20040;-71
2021/01/10 23:47:14;;;;;;;2.70;1.77;;;16.20;64.70;;;;;;10496486;28;20111;-70
2021/01/10 23:52:15;;;;;;;2.20;1.63;;;16.20;64.70;;;;;;10496268;28;20056;-67
2021/01/10 23:57:16;;;;;;;2.28;1.52;;;16.20;64.80;;;;;;10496413;28;20024;-70
